sensor_id;sensor_type;location;lat;lon;timestamp;P1;durP1;ratioP1;P2;durP2;ratioP2
76459;SDS011;65299;46.084;18.762;2023-04-08T00:01:32;30.40;;;15.43;;
76459;SDS011;65299;46.084;18.762;2023-04-08T00:04:32;32.90;;;16.37;;
76459;SDS011;65299;46.084;18.762;2023-04-08T00:07:33;33.70;;;16.67;;
76459;SDS011;65299;46.084;18.762;2023-04-08T00:10:33;30.85;;;15.70;;
76459;SDS011;65299;46.084;18.762;2023-04-08T00:13:34;29.77;;;15.03;;
76459;SDS011;65299;46.084;18.762;2023-04-08T00:16:34;33.50;;;16.67;;
76459;SDS011;65299;46.084;18.762;2023-04-08T00:19:35;32.80;;;16.58;;
76459;SDS011;65299;46.084;18.762;2023-04-08T00:22:35;29.33;;;16.00;;
76459;SDS011;65299;46.084;18.762;2023-04-08T00:25:35;30.37;;;15.20;;
76459;SDS011;65299;46.084;18.762;2023-04-08T00:28:36;28.00;;;14.90;;
76459;SDS011;65299;46.084;18.762;2023-04-08T00:31:37;27.83;;;14.90;;
76459;SDS011;65299;46.084;18.762;2023-04-08T00:34:37;29.43;;;15.23;;
76459;SDS011;65299;46.084;18.762;2023-04-08T00:37:39;29.85;;;15.27;;
76459;SDS011;65299;46.084;18.762;2023-04-08T00:40:40;26.70;;;14.57;;
76459;SDS011;65299;46.084;18.762;2023-04-08T00:43:40;28.70;;;15.00;;
76459;SDS011;65299;46.084;18.762;2023-04-08T00:46:41;27.13;;;14.40;;
76459;SDS011;65299;46.084;18.762;2023-04-08T00:49:42;28.73;;;14.83;;
76459;SDS011;65299;46.084;18.762;2023-04-08T00:52:43;28.95;;;15.82;;
76459;SDS011;65299;46.084;18.762;2023-04-08T00:55:43;30.93;;;14.73;;
76459;SDS011;65299;46.084;18.762;2023-04-08T00:58:44;28.65;;;15.18;;
76459;SDS011;65299;46.084;18.762;2023-04-08T01:01:54;29.20;;;15.00;;
76459;SDS011;65299;46.084;18.762;2023-04-08T01:05:05;28.77;;;15.10;;
76459;SDS011;65299;46.084;18.762;2023-04-08T01:08:10;27.50;;;14.02;;
76459;SDS011;65299;46.084;18.762;2023-04-08T01:11:11;27.30;;;14.47;;
76459;SDS011;65299;46.084;18.762;2023-04-08T01:14:16;26.90;;;14.20;;
76459;SDS011;65299;46.084;18.762;2023-04-08T01:17:19;25.45;;;14.32;;
76459;SDS011;65299;46.084;18.762;2023-04-08T01:20:21;28.70;;;15.02;;
76459;SDS011;65299;46.084;18.762;2023-04-08T01:23:31;29.48;;;14.82;;
76459;SDS011;65299;46.084;18.762;2023-04-08T01:26:37;29.33;;;15.00;;
76459;SDS011;65299;46.084;18.762;2023-04-08T01:29:39;31.00;;;15.53;;
76459;SDS011;65299;46.084;18.762;2023-04-08T01:32:42;27.55;;;15.00;;
76459;SDS011;65299;46.084;18.762;2023-04-08T01:35:45;32.78;;;16.98;;
76459;SDS011;65299;46.084;18.762;2023-04-08T01:38:46;30.63;;;15.27;;
76459;SDS011;65299;46.084;18.762;2023-04-08T01:41:48;29.45;;;15.35;;
76459;SDS011;65299;46.084;18.762;2023-04-08T01:44:53;27.75;;;14.93;;
76459;SDS011;65299;46.084;18.762;2023-04-08T01:47:56;25.83;;;14.45;;
76459;SDS011;65299;46.084;18.762;2023-04-08T01:50:59;31.43;;;14.87;;
76459;SDS011;65299;46.084;18.762;2023-04-08T01:54:00;27.45;;;14.35;;
76459;SDS011;65299;46.084;18.762;2023-04-08T01:57:01;30.05;;;15.40;;
76459;SDS011;65299;46.084;18.762;2023-04-08T02:00:09;27.03;;;15.33;;
76459;SDS011;65299;46.084;18.762;2023-04-08T02:03:11;27.58;;;15.45;;
76459;SDS011;65299;46.084;18.762;2023-04-08T02:06:13;28.33;;;13.75;;
76459;SDS011;65299;46.084;18.762;2023-04-08T02:09:14;29.53;;;15.00;;
76459;SDS011;65299;46.084;18.762;2023-04-08T02:12:14;28.10;;;15.05;;
76459;SDS011;65299;46.084;18.762;2023-04-08T02:15:15;28.73;;;14.57;;
76459;SDS011;65299;46.084;18.762;2023-04-08T02:18:19;29.27;;;14.77;;
76459;SDS011;65299;46.084;18.762;2023-04-08T02:21:30;27.90;;;14.40;;
76459;SDS011;65299;46.084;18.762;2023-04-08T02:24:35;27.83;;;14.80;;
76459;SDS011;65299;46.084;18.762;2023-04-08T02:27:38;28.77;;;15.13;;
76459;SDS011;65299;46.084;18.762;2023-04-08T02:30:41;26.52;;;14.27;;
76459;SDS011;65299;46.084;18.762;2023-04-08T02:33:44;29.38;;;14.60;;
76459;SDS011;65299;46.084;18.762;2023-04-08T02:36:45;30.77;;;14.55;;
76459;SDS011;65299;46.084;18.762;2023-04-08T02:39:46;26.33;;;13.87;;
76459;SDS011;65299;46.084;18.762;2023-04-08T02:42:47;30.17;;;15.10;;
76459;SDS011;65299;46.084;18.762;2023-04-08T02:45:47;26.37;;;13.27;;
76459;SDS011;65299;46.084;18.762;2023-04-08T02:48:48;27.13;;;14.63;;
76459;SDS011;65299;46.084;18.762;2023-04-08T02:51:48;29.33;;;14.30;;
76459;SDS011;65299;46.084;18.762;2023-04-08T02:54:48;34.17;;;16.87;;
76459;SDS011;65299;46.084;18.762;2023-04-08T02:57:49;31.02;;;16.13;;
76459;SDS011;65299;46.084;18.762;2023-04-08T03:00:49;32.67;;;16.50;;
76459;SDS011;65299;46.084;18.762;2023-04-08T03:03:50;29.50;;;15.27;;
76459;SDS011;65299;46.084;18.762;2023-04-08T03:06:50;27.60;;;14.73;;
76459;SDS011;65299;46.084;18.762;2023-04-08T03:09:50;29.23;;;14.27;;
76459;SDS011;65299;46.084;18.762;2023-04-08T03:12:51;34.77;;;17.07;;
76459;SDS011;65299;46.084;18.762;2023-04-08T03:15:52;34.10;;;17.15;;
76459;SDS011;65299;46.084;18.762;2023-04-08T03:18:52;31.83;;;16.57;;
76459;SDS011;65299;46.084;18.762;2023-04-08T03:21:53;31.93;;;16.03;;
76459;SDS011;65299;46.084;18.762;2023-04-08T03:24:53;34.23;;;18.77;;
76459;SDS011;65299;46.084;18.762;2023-04-08T03:27:54;35.03;;;17.70;;
76459;SDS011;65299;46.084;18.762;2023-04-08T03:30:54;31.63;;;17.13;;
76459;SDS011;65299;46.084;18.762;2023-04-08T03:33:55;36.10;;;17.50;;
76459;SDS011;65299;46.084;18.762;2023-04-08T03:36:55;33.17;;;17.07;;
76459;SDS011;65299;46.084;18.762;2023-04-08T03:39:56;32.53;;;16.10;;
76459;SDS011;65299;46.084;18.762;2023-04-08T03:42:56;31.93;;;15.50;;
76459;SDS011;65299;46.084;18.762;2023-04-08T03:45:56;29.88;;;15.50;;
76459;SDS011;65299;46.084;18.762;2023-04-08T03:48:57;32.90;;;16.57;;
76459;SDS011;65299;46.084;18.762;2023-04-08T03:51:57;29.87;;;15.20;;
76459;SDS011;65299;46.084;18.762;2023-04-08T03:54:58;30.70;;;15.63;;
76459;SDS011;65299;46.084;18.762;2023-04-08T03:57:58;32.00;;;15.83;;
76459;SDS011;65299;46.084;18.762;2023-04-08T04:00:58;35.78;;;17.05;;
76459;SDS011;65299;46.084;18.762;2023-04-08T04:03:59;38.67;;;18.67;;
76459;SDS011;65299;46.084;18.762;2023-04-08T04:06:59;30.57;;;15.33;;
76459;SDS011;65299;46.084;18.762;2023-04-08T04:10:00;33.17;;;16.75;;
76459;SDS011;65299;46.084;18.762;2023-04-08T04:13:00;30.23;;;15.40;;
76459;SDS011;65299;46.084;18.762;2023-04-08T04:16:01;30.67;;;15.80;;
76459;SDS011;65299;46.084;18.762;2023-04-08T04:19:01;30.30;;;15.70;;
76459;SDS011;65299;46.084;18.762;2023-04-08T04:22:02;29.65;;;15.45;;
76459;SDS011;65299;46.084;18.762;2023-04-08T04:25:02;30.80;;;15.40;;
76459;SDS011;65299;46.084;18.762;2023-04-08T04:28:02;34.33;;;16.63;;
76459;SDS011;65299;46.084;18.762;2023-04-08T04:31:03;35.47;;;17.60;;
76459;SDS011;65299;46.084;18.762;2023-04-08T04:34:04;34.33;;;19.03;;
76459;SDS011;65299;46.084;18.762;2023-04-08T04:37:04;35.20;;;16.98;;
76459;SDS011;65299;46.084;18.762;2023-04-08T04:40:05;36.53;;;17.80;;
76459;SDS011;65299;46.084;18.762;2023-04-08T04:43:06;33.42;;;16.42;;
76459;SDS011;65299;46.084;18.762;2023-04-08T04:46:06;38.67;;;19.13;;
76459;SDS011;65299;46.084;18.762;2023-04-08T04:49:08;40.10;;;20.00;;
76459;SDS011;65299;46.084;18.762;2023-04-08T04:52:08;40.80;;;19.73;;
76459;SDS011;65299;46.084;18.762;2023-04-08T04:55:08;40.07;;;20.40;;
76459;SDS011;65299;46.084;18.762;2023-04-08T04:58:09;40.88;;;20.42;;
76459;SDS011;65299;46.084;18.762;2023-04-08T05:01:10;38.23;;;18.83;;
76459;SDS011;65299;46.084;18.762;2023-04-08T05:04:10;39.80;;;18.47;;
76459;SDS011;65299;46.084;18.762;2023-04-08T05:07:10;38.20;;;19.10;;
76459;SDS011;65299;46.084;18.762;2023-04-08T05:10:11;41.07;;;19.37;;
76459;SDS011;65299;46.084;18.762;2023-04-08T05:13:11;46.07;;;23.23;;
76459;SDS011;65299;46.084;18.762;2023-04-08T05:16:12;47.93;;;23.23;;
76459;SDS011;65299;46.084;18.762;2023-04-08T05:19:12;48.00;;;22.92;;
76459;SDS011;65299;46.084;18.762;2023-04-08T05:22:13;45.00;;;22.50;;
76459;SDS011;65299;46.084;18.762;2023-04-08T05:25:13;46.80;;;22.00;;
76459;SDS011;65299;46.084;18.762;2023-04-08T05:28:14;35.22;;;18.67;;
76459;SDS011;65299;46.084;18.762;2023-04-08T05:31:15;43.03;;;20.37;;
76459;SDS011;65299;46.084;18.762;2023-04-08T05:34:16;44.90;;;21.27;;
76459;SDS011;65299;46.084;18.762;2023-04-08T05:37:21;44.67;;;22.30;;
76459;SDS011;65299;46.084;18.762;2023-04-08T05:40:22;42.40;;;21.60;;
76459;SDS011;65299;46.084;18.762;2023-04-08T05:43:22;53.00;;;25.13;;
76459;SDS011;65299;46.084;18.762;2023-04-08T05:46:23;54.97;;;25.10;;
76459;SDS011;65299;46.084;18.762;2023-04-08T05:49:23;49.70;;;23.00;;
76459;SDS011;65299;46.084;18.762;2023-04-08T05:52:24;47.43;;;22.67;;
76459;SDS011;65299;46.084;18.762;2023-04-08T05:55:24;38.33;;;19.92;;
76459;SDS011;65299;46.084;18.762;2023-04-08T05:58:25;36.80;;;18.43;;
76459;SDS011;65299;46.084;18.762;2023-04-08T06:01:25;48.60;;;26.30;;
76459;SDS011;65299;46.084;18.762;2023-04-08T06:04:26;49.83;;;28.35;;
76459;SDS011;65299;46.084;18.762;2023-04-08T06:07:26;42.47;;;21.50;;
76459;SDS011;65299;46.084;18.762;2023-04-08T06:10:27;36.07;;;18.67;;
76459;SDS011;65299;46.084;18.762;2023-04-08T06:13:27;36.40;;;17.73;;
76459;SDS011;65299;46.084;18.762;2023-04-08T06:16:28;37.40;;;19.03;;
76459;SDS011;65299;46.084;18.762;2023-04-08T06:19:28;37.43;;;19.97;;
76459;SDS011;65299;46.084;18.762;2023-04-08T06:22:29;35.57;;;18.57;;
76459;SDS011;65299;46.084;18.762;2023-04-08T06:25:29;39.60;;;19.37;;
76459;SDS011;65299;46.084;18.762;2023-04-08T06:28:30;46.70;;;24.17;;
76459;SDS011;65299;46.084;18.762;2023-04-08T06:31:31;40.63;;;21.17;;
76459;SDS011;65299;46.084;18.762;2023-04-08T06:34:31;44.70;;;23.33;;
76459;SDS011;65299;46.084;18.762;2023-04-08T06:37:32;39.53;;;20.80;;
76459;SDS011;65299;46.084;18.762;2023-04-08T06:40:33;44.43;;;20.33;;
76459;SDS011;65299;46.084;18.762;2023-04-08T06:43:34;37.35;;;18.58;;
76459;SDS011;65299;46.084;18.762;2023-04-08T06:46:35;35.03;;;16.37;;
76459;SDS011;65299;46.084;18.762;2023-04-08T06:49:35;39.22;;;18.77;;
76459;SDS011;65299;46.084;18.762;2023-04-08T06:52:36;35.70;;;17.50;;
76459;SDS011;65299;46.084;18.762;2023-04-08T06:55:36;40.80;;;19.70;;
76459;SDS011;65299;46.084;18.762;2023-04-08T06:58:37;39.93;;;19.33;;
76459;SDS011;65299;46.084;18.762;2023-04-08T07:01:37;35.60;;;18.45;;
76459;SDS011;65299;46.084;18.762;2023-04-08T07:04:38;38.17;;;19.07;;
76459;SDS011;65299;46.084;18.762;2023-04-08T07:07:38;40.27;;;18.87;;
76459;SDS011;65299;46.084;18.762;2023-04-08T07:10:39;39.45;;;17.92;;
76459;SDS011;65299;46.084;18.762;2023-04-08T07:13:39;41.77;;;18.77;;
76459;SDS011;65299;46.084;18.762;2023-04-08T07:16:40;40.00;;;17.97;;
76459;SDS011;65299;46.084;18.762;2023-04-08T07:19:40;40.27;;;18.67;;
76459;SDS011;65299;46.084;18.762;2023-04-08T07:22:41;41.47;;;18.45;;
76459;SDS011;65299;46.084;18.762;2023-04-08T07:25:41;36.07;;;18.13;;
76459;SDS011;65299;46.084;18.762;2023-04-08T07:28:41;38.07;;;19.50;;
76459;SDS011;65299;46.084;18.762;2023-04-08T07:31:42;38.38;;;18.23;;
76459;SDS011;65299;46.084;18.762;2023-04-08T07:34:43;36.37;;;18.30;;
76459;SDS011;65299;46.084;18.762;2023-04-08T07:37:43;35.08;;;17.35;;
76459;SDS011;65299;46.084;18.762;2023-04-08T07:40:44;35.47;;;17.77;;
76459;SDS011;65299;46.084;18.762;2023-04-08T07:43:44;37.47;;;17.53;;
76459;SDS011;65299;46.084;18.762;2023-04-08T07:46:45;35.77;;;17.30;;
76459;SDS011;65299;46.084;18.762;2023-04-08T07:49:48;34.40;;;17.43;;
76459;SDS011;65299;46.084;18.762;2023-04-08T07:52:48;33.03;;;17.38;;
76459;SDS011;65299;46.084;18.762;2023-04-08T07:55:49;38.70;;;19.47;;
76459;SDS011;65299;46.084;18.762;2023-04-08T07:58:49;34.73;;;17.73;;
76459;SDS011;65299;46.084;18.762;2023-04-08T08:01:50;33.60;;;17.70;;
76459;SDS011;65299;46.084;18.762;2023-04-08T08:04:50;37.40;;;18.13;;
76459;SDS011;65299;46.084;18.762;2023-04-08T08:07:51;33.63;;;17.90;;
76459;SDS011;65299;46.084;18.762;2023-04-08T08:10:51;35.83;;;17.37;;
76459;SDS011;65299;46.084;18.762;2023-04-08T08:13:51;31.20;;;16.60;;
76459;SDS011;65299;46.084;18.762;2023-04-08T08:16:52;32.20;;;17.57;;
76459;SDS011;65299;46.084;18.762;2023-04-08T08:19:53;34.65;;;17.85;;
76459;SDS011;65299;46.084;18.762;2023-04-08T08:22:53;34.43;;;17.80;;
76459;SDS011;65299;46.084;18.762;2023-04-08T08:26:01;33.43;;;17.23;;
76459;SDS011;65299;46.084;18.762;2023-04-08T08:29:05;31.90;;;17.35;;
76459;SDS011;65299;46.084;18.762;2023-04-08T08:32:07;33.35;;;17.38;;
76459;SDS011;65299;46.084;18.762;2023-04-08T08:35:07;29.80;;;15.70;;
76459;SDS011;65299;46.084;18.762;2023-04-08T08:38:08;30.13;;;16.00;;
76459;SDS011;65299;46.084;18.762;2023-04-08T08:41:09;31.20;;;16.47;;
76459;SDS011;65299;46.084;18.762;2023-04-08T08:44:09;31.63;;;16.63;;
76459;SDS011;65299;46.084;18.762;2023-04-08T08:47:10;32.40;;;17.42;;
76459;SDS011;65299;46.084;18.762;2023-04-08T08:50:10;32.87;;;16.90;;
76459;SDS011;65299;46.084;18.762;2023-04-08T08:53:11;30.40;;;16.03;;
76459;SDS011;65299;46.084;18.762;2023-04-08T08:56:11;30.17;;;16.33;;
76459;SDS011;65299;46.084;18.762;2023-04-08T08:59:12;28.83;;;15.00;;
76459;SDS011;65299;46.084;18.762;2023-04-08T09:02:25;27.80;;;14.88;;
76459;SDS011;65299;46.084;18.762;2023-04-08T09:05:28;29.73;;;15.47;;
76459;SDS011;65299;46.084;18.762;2023-04-08T09:08:30;27.35;;;14.50;;
76459;SDS011;65299;46.084;18.762;2023-04-08T09:11:31;31.57;;;16.80;;
76459;SDS011;65299;46.084;18.762;2023-04-08T09:14:32;27.88;;;15.45;;
76459;SDS011;65299;46.084;18.762;2023-04-08T09:17:33;25.87;;;15.40;;
76459;SDS011;65299;46.084;18.762;2023-04-08T09:20:35;27.75;;;14.70;;
76459;SDS011;65299;46.084;18.762;2023-04-08T09:23:45;26.80;;;14.23;;
76459;SDS011;65299;46.084;18.762;2023-04-08T09:26:46;27.98;;;14.93;;
76459;SDS011;65299;46.084;18.762;2023-04-08T09:29:47;28.07;;;13.63;;
76459;SDS011;65299;46.084;18.762;2023-04-08T09:32:48;24.87;;;12.57;;
76459;SDS011;65299;46.084;18.762;2023-04-08T09:35:50;26.65;;;14.00;;
76459;SDS011;65299;46.084;18.762;2023-04-08T09:38:50;25.02;;;12.63;;
76459;SDS011;65299;46.084;18.762;2023-04-08T09:41:51;20.50;;;11.03;;
76459;SDS011;65299;46.084;18.762;2023-04-08T09:44:54;21.60;;;12.02;;
76459;SDS011;65299;46.084;18.762;2023-04-08T09:47:56;21.48;;;12.30;;
76459;SDS011;65299;46.084;18.762;2023-04-08T09:51:10;24.95;;;12.27;;
76459;SDS011;65299;46.084;18.762;2023-04-08T09:54:16;22.33;;;10.53;;
76459;SDS011;65299;46.084;18.762;2023-04-08T10:00:54;22.42;;;11.50;;
76459;SDS011;65299;46.084;18.762;2023-04-08T10:03:55;20.88;;;11.13;;
76459;SDS011;65299;46.084;18.762;2023-04-08T10:06:56;20.90;;;11.45;;
76459;SDS011;65299;46.084;18.762;2023-04-08T10:10:03;20.90;;;11.57;;
76459;SDS011;65299;46.084;18.762;2023-04-08T10:13:05;21.40;;;11.30;;
76459;SDS011;65299;46.084;18.762;2023-04-08T10:19:36;19.58;;;11.23;;
76459;SDS011;65299;46.084;18.762;2023-04-08T10:22:47;19.17;;;10.95;;
76459;SDS011;65299;46.084;18.762;2023-04-08T10:25:48;19.67;;;10.87;;
76459;SDS011;65299;46.084;18.762;2023-04-08T10:28:48;21.40;;;12.13;;
76459;SDS011;65299;46.084;18.762;2023-04-08T10:31:49;19.53;;;10.50;;
76459;SDS011;65299;46.084;18.762;2023-04-08T10:34:50;19.50;;;10.65;;
76459;SDS011;65299;46.084;18.762;2023-04-08T10:37:52;19.30;;;11.13;;
76459;SDS011;65299;46.084;18.762;2023-04-08T10:40:53;19.87;;;10.70;;
76459;SDS011;65299;46.084;18.762;2023-04-08T10:43:54;21.45;;;11.32;;
76459;SDS011;65299;46.084;18.762;2023-04-08T10:46:54;22.20;;;10.20;;
76459;SDS011;65299;46.084;18.762;2023-04-08T10:49:55;30.15;;;15.32;;
76459;SDS011;65299;46.084;18.762;2023-04-08T10:52:56;19.35;;;11.10;;
76459;SDS011;65299;46.084;18.762;2023-04-08T10:59:04;19.10;;;10.93;;
76459;SDS011;65299;46.084;18.762;2023-04-08T11:02:05;18.73;;;10.43;;
76459;SDS011;65299;46.084;18.762;2023-04-08T11:05:11;19.90;;;11.02;;
76459;SDS011;65299;46.084;18.762;2023-04-08T11:08:12;25.03;;;13.03;;
76459;SDS011;65299;46.084;18.762;2023-04-08T11:11:12;16.63;;;9.63;;
76459;SDS011;65299;46.084;18.762;2023-04-08T11:14:13;22.05;;;10.55;;
76459;SDS011;65299;46.084;18.762;2023-04-08T11:17:16;22.37;;;11.87;;
76459;SDS011;65299;46.084;18.762;2023-04-08T11:20:17;20.73;;;11.52;;
76459;SDS011;65299;46.084;18.762;2023-04-08T11:23:18;25.27;;;12.73;;
76459;SDS011;65299;46.084;18.762;2023-04-08T11:26:19;27.47;;;16.33;;
76459;SDS011;65299;46.084;18.762;2023-04-08T11:29:20;22.50;;;12.32;;
76459;SDS011;65299;46.084;18.762;2023-04-08T11:32:21;17.33;;;9.90;;
76459;SDS011;65299;46.084;18.762;2023-04-08T11:35:22;20.55;;;11.85;;
76459;SDS011;65299;46.084;18.762;2023-04-08T11:38:23;23.43;;;13.27;;
76459;SDS011;65299;46.084;18.762;2023-04-08T11:41:24;19.95;;;11.90;;
76459;SDS011;65299;46.084;18.762;2023-04-08T11:44:34;18.50;;;10.30;;
76459;SDS011;65299;46.084;18.762;2023-04-08T11:47:35;19.90;;;10.20;;
76459;SDS011;65299;46.084;18.762;2023-04-08T11:50:35;17.63;;;9.40;;
76459;SDS011;65299;46.084;18.762;2023-04-08T11:53:36;19.93;;;10.13;;
76459;SDS011;65299;46.084;18.762;2023-04-08T11:56:43;18.33;;;10.00;;
76459;SDS011;65299;46.084;18.762;2023-04-08T11:59:46;22.08;;;13.32;;
76459;SDS011;65299;46.084;18.762;2023-04-08T12:02:47;20.27;;;12.00;;
76459;SDS011;65299;46.084;18.762;2023-04-08T12:05:48;19.80;;;11.38;;
76459;SDS011;65299;46.084;18.762;2023-04-08T12:08:49;15.87;;;9.57;;
76459;SDS011;65299;46.084;18.762;2023-04-08T12:11:49;17.98;;;10.35;;
76459;SDS011;65299;46.084;18.762;2023-04-08T12:14:50;17.37;;;9.80;;
76459;SDS011;65299;46.084;18.762;2023-04-08T12:17:50;22.02;;;12.43;;
76459;SDS011;65299;46.084;18.762;2023-04-08T12:20:51;40.40;;;23.27;;
76459;SDS011;65299;46.084;18.762;2023-04-08T12:23:51;19.13;;;11.03;;
76459;SDS011;65299;46.084;18.762;2023-04-08T12:26:52;17.38;;;9.73;;
76459;SDS011;65299;46.084;18.762;2023-04-08T12:29:52;22.27;;;12.53;;
76459;SDS011;65299;46.084;18.762;2023-04-08T12:32:53;15.63;;;9.30;;
76459;SDS011;65299;46.084;18.762;2023-04-08T12:35:54;16.02;;;9.55;;
76459;SDS011;65299;46.084;18.762;2023-04-08T12:38:54;16.57;;;9.63;;
76459;SDS011;65299;46.084;18.762;2023-04-08T12:41:55;15.32;;;8.93;;
76459;SDS011;65299;46.084;18.762;2023-04-08T12:44:56;19.93;;;11.70;;
76459;SDS011;65299;46.084;18.762;2023-04-08T12:47:56;17.45;;;10.30;;
76459;SDS011;65299;46.084;18.762;2023-04-08T12:50:57;17.13;;;9.23;;
76459;SDS011;65299;46.084;18.762;2023-04-08T12:53:58;15.55;;;8.80;;
76459;SDS011;65299;46.084;18.762;2023-04-08T12:56:59;15.38;;;8.75;;
76459;SDS011;65299;46.084;18.762;2023-04-08T13:00:00;16.87;;;9.50;;
76459;SDS011;65299;46.084;18.762;2023-04-08T13:03:01;13.63;;;7.80;;
76459;SDS011;65299;46.084;18.762;2023-04-08T13:06:01;14.70;;;8.63;;
76459;SDS011;65299;46.084;18.762;2023-04-08T13:09:01;16.43;;;10.90;;
76459;SDS011;65299;46.084;18.762;2023-04-08T13:12:02;13.20;;;8.13;;
76459;SDS011;65299;46.084;18.762;2023-04-08T13:15:02;12.18;;;7.45;;
76459;SDS011;65299;46.084;18.762;2023-04-08T13:18:04;14.15;;;7.93;;
76459;SDS011;65299;46.084;18.762;2023-04-08T13:21:04;15.77;;;8.63;;
76459;SDS011;65299;46.084;18.762;2023-04-08T13:24:05;16.50;;;9.00;;
76459;SDS011;65299;46.084;18.762;2023-04-08T13:27:05;15.30;;;8.57;;
76459;SDS011;65299;46.084;18.762;2023-04-08T13:30:06;18.43;;;9.90;;
76459;SDS011;65299;46.084;18.762;2023-04-08T13:33:07;11.75;;;6.97;;
76459;SDS011;65299;46.084;18.762;2023-04-08T13:36:07;18.77;;;10.33;;
76459;SDS011;65299;46.084;18.762;2023-04-08T13:39:08;14.77;;;9.40;;
76459;SDS011;65299;46.084;18.762;2023-04-08T13:42:08;11.45;;;7.10;;
76459;SDS011;65299;46.084;18.762;2023-04-08T13:45:09;12.67;;;7.80;;
76459;SDS011;65299;46.084;18.762;2023-04-08T13:48:09;18.87;;;10.13;;
76459;SDS011;65299;46.084;18.762;2023-04-08T13:51:09;30.83;;;12.37;;
76459;SDS011;65299;46.084;18.762;2023-04-08T13:54:10;13.52;;;8.23;;
76459;SDS011;65299;46.084;18.762;2023-04-08T13:57:10;14.33;;;7.67;;
76459;SDS011;65299;46.084;18.762;2023-04-08T14:00:11;15.60;;;9.07;;
76459;SDS011;65299;46.084;18.762;2023-04-08T14:03:12;14.80;;;8.90;;
76459;SDS011;65299;46.084;18.762;2023-04-08T14:06:12;12.67;;;8.30;;
76459;SDS011;65299;46.084;18.762;2023-04-08T14:09:13;14.73;;;7.87;;
76459;SDS011;65299;46.084;18.762;2023-04-08T14:12:13;13.80;;;7.90;;
76459;SDS011;65299;46.084;18.762;2023-04-08T14:15:13;12.20;;;7.50;;
76459;SDS011;65299;46.084;18.762;2023-04-08T14:18:14;11.77;;;7.10;;
76459;SDS011;65299;46.084;18.762;2023-04-08T14:21:18;12.25;;;7.35;;
76459;SDS011;65299;46.084;18.762;2023-04-08T14:24:18;12.70;;;8.03;;
76459;SDS011;65299;46.084;18.762;2023-04-08T14:27:18;11.63;;;7.57;;
76459;SDS011;65299;46.084;18.762;2023-04-08T14:30:19;11.47;;;7.47;;
76459;SDS011;65299;46.084;18.762;2023-04-08T14:33:20;12.43;;;7.82;;
76459;SDS011;65299;46.084;18.762;2023-04-08T14:36:20;12.80;;;7.43;;
76459;SDS011;65299;46.084;18.762;2023-04-08T14:39:23;11.25;;;6.95;;
76459;SDS011;65299;46.084;18.762;2023-04-08T14:42:23;11.50;;;6.80;;
76459;SDS011;65299;46.084;18.762;2023-04-08T14:45:24;12.40;;;7.70;;
76459;SDS011;65299;46.084;18.762;2023-04-08T14:48:24;14.00;;;8.80;;
76459;SDS011;65299;46.084;18.762;2023-04-08T14:51:25;13.37;;;8.60;;
76459;SDS011;65299;46.084;18.762;2023-04-08T14:54:25;14.77;;;8.63;;
76459;SDS011;65299;46.084;18.762;2023-04-08T14:57:26;13.20;;;8.17;;
76459;SDS011;65299;46.084;18.762;2023-04-08T15:00:26;12.03;;;7.47;;
76459;SDS011;65299;46.084;18.762;2023-04-08T15:03:27;13.52;;;8.68;;
76459;SDS011;65299;46.084;18.762;2023-04-08T15:06:27;10.17;;;6.27;;
76459;SDS011;65299;46.084;18.762;2023-04-08T15:09:28;13.07;;;8.47;;
76459;SDS011;65299;46.084;18.762;2023-04-08T15:12:28;11.45;;;6.72;;
76459;SDS011;65299;46.084;18.762;2023-04-08T15:15:29;10.67;;;6.47;;
76459;SDS011;65299;46.084;18.762;2023-04-08T15:18:29;12.60;;;8.27;;
76459;SDS011;65299;46.084;18.762;2023-04-08T15:21:30;10.77;;;6.32;;
76459;SDS011;65299;46.084;18.762;2023-04-08T15:24:30;10.30;;;6.50;;
76459;SDS011;65299;46.084;18.762;2023-04-08T15:27:31;11.07;;;6.97;;
76459;SDS011;65299;46.084;18.762;2023-04-08T15:30:32;13.40;;;8.15;;
76459;SDS011;65299;46.084;18.762;2023-04-08T15:33:34;10.45;;;6.13;;
76459;SDS011;65299;46.084;18.762;2023-04-08T15:36:37;12.73;;;7.33;;
76459;SDS011;65299;46.084;18.762;2023-04-08T15:39:38;11.95;;;6.90;;
76459;SDS011;65299;46.084;18.762;2023-04-08T15:42:40;11.38;;;6.60;;
76459;SDS011;65299;46.084;18.762;2023-04-08T15:45:44;11.73;;;6.77;;
76459;SDS011;65299;46.084;18.762;2023-04-08T15:48:48;11.47;;;7.10;;
76459;SDS011;65299;46.084;18.762;2023-04-08T15:51:49;14.57;;;7.82;;
76459;SDS011;65299;46.084;18.762;2023-04-08T15:54:50;24.85;;;11.82;;
76459;SDS011;65299;46.084;18.762;2023-04-08T15:57:50;16.93;;;8.93;;
76459;SDS011;65299;46.084;18.762;2023-04-08T16:00:53;17.98;;;9.73;;
76459;SDS011;65299;46.084;18.762;2023-04-08T16:03:54;23.75;;;13.15;;
76459;SDS011;65299;46.084;18.762;2023-04-08T16:06:55;14.73;;;8.77;;
76459;SDS011;65299;46.084;18.762;2023-04-08T16:09:56;35.80;;;17.05;;
76459;SDS011;65299;46.084;18.762;2023-04-08T16:12:56;22.03;;;11.53;;
76459;SDS011;65299;46.084;18.762;2023-04-08T16:15:57;14.23;;;8.70;;
76459;SDS011;65299;46.084;18.762;2023-04-08T16:19:00;17.13;;;9.45;;
76459;SDS011;65299;46.084;18.762;2023-04-08T16:22:01;22.60;;;11.73;;
76459;SDS011;65299;46.084;18.762;2023-04-08T16:25:01;18.70;;;10.10;;
76459;SDS011;65299;46.084;18.762;2023-04-08T16:28:02;18.17;;;11.17;;
76459;SDS011;65299;46.084;18.762;2023-04-08T16:31:02;18.00;;;10.52;;
76459;SDS011;65299;46.084;18.762;2023-04-08T16:34:03;22.10;;;12.47;;
76459;SDS011;65299;46.084;18.762;2023-04-08T16:37:04;27.63;;;13.45;;
76459;SDS011;65299;46.084;18.762;2023-04-08T16:40:04;22.87;;;11.83;;
76459;SDS011;65299;46.084;18.762;2023-04-08T16:43:05;24.92;;;14.30;;
76459;SDS011;65299;46.084;18.762;2023-04-08T16:46:14;22.00;;;12.33;;
76459;SDS011;65299;46.084;18.762;2023-04-08T16:49:15;23.58;;;12.05;;
76459;SDS011;65299;46.084;18.762;2023-04-08T16:52:16;23.77;;;12.67;;
76459;SDS011;65299;46.084;18.762;2023-04-08T16:55:16;20.60;;;11.43;;
76459;SDS011;65299;46.084;18.762;2023-04-08T16:58:17;27.55;;;14.27;;
76459;SDS011;65299;46.084;18.762;2023-04-08T17:01:18;22.87;;;12.60;;
76459;SDS011;65299;46.084;18.762;2023-04-08T17:04:19;22.80;;;13.25;;
76459;SDS011;65299;46.084;18.762;2023-04-08T17:07:19;19.87;;;11.77;;
76459;SDS011;65299;46.084;18.762;2023-04-08T17:10:21;22.40;;;12.85;;
76459;SDS011;65299;46.084;18.762;2023-04-08T17:13:21;26.40;;;14.23;;
76459;SDS011;65299;46.084;18.762;2023-04-08T17:16:22;24.70;;;13.77;;
76459;SDS011;65299;46.084;18.762;2023-04-08T17:19:22;23.93;;;13.37;;
76459;SDS011;65299;46.084;18.762;2023-04-08T17:22:23;32.53;;;16.87;;
76459;SDS011;65299;46.084;18.762;2023-04-08T17:25:23;27.37;;;15.90;;
76459;SDS011;65299;46.084;18.762;2023-04-08T17:28:24;26.05;;;13.95;;
76459;SDS011;65299;46.084;18.762;2023-04-08T17:31:24;41.90;;;19.07;;
76459;SDS011;65299;46.084;18.762;2023-04-08T17:34:24;32.33;;;16.83;;
76459;SDS011;65299;46.084;18.762;2023-04-08T17:37:25;43.88;;;21.23;;